createdAt,value
2023-10-10T00:02:22.165Z,3.64
2023-10-10T00:04:51.185Z,3.60
2023-10-10T00:07:20.305Z,3.58
2023-10-10T00:09:47.998Z,3.54
2023-10-10T00:12:28.107Z,3.49
2023-10-10T00:15:51.982Z,3.46
2023-10-10T00:18:44.917Z,3.61
2023-10-10T00:21:21.765Z,3.59
2023-10-10T00:23:49.119Z,3.55
2023-10-10T00:26:21.130Z,3.50
2023-10-10T00:28:55.747Z,3.44
2023-10-10T00:31:28.506Z,3.37
2023-10-10T00:33:56.699Z,3.34
2023-10-10T00:36:29.470Z,3.43
2023-10-10T00:39:17.208Z,3.42
2023-10-10T00:41:50.834Z,3.35
2023-10-10T00:44:19.067Z,3.30
2023-10-10T00:46:49.178Z,3.23
2023-10-10T00:49:18.452Z,3.21
2023-10-10T00:51:48.740Z,3.27
2023-10-10T00:54:23.029Z,3.28
2023-10-10T00:56:57.560Z,3.23
2023-10-10T00:59:44.065Z,3.20
2023-10-10T01:02:18.297Z,3.17
2023-10-10T01:04:54.923Z,3.13
2023-10-10T01:07:24.377Z,3.21
2023-10-10T01:09:58.786Z,3.22
2023-10-10T01:12:37.074Z,3.17
2023-10-10T01:15:10.095Z,3.11
2023-10-10T01:17:39.653Z,3.06
2023-10-10T01:20:31.000Z,3.04
2023-10-10T01:22:58.978Z,3.14
2023-10-10T01:25:29.295Z,3.21
2023-10-10T01:28:02.996Z,3.16
2023-10-10T01:30:58.854Z,3.11
2023-10-10T01:33:37.760Z,3.06
2023-10-10T01:36:20.309Z,3.01
2023-10-10T01:39:01.151Z,2.99
2023-10-10T01:41:49.687Z,3.11
2023-10-10T01:44:19.983Z,3.19
2023-10-10T01:46:47.795Z,3.16
2023-10-10T01:49:21.025Z,3.13
2023-10-10T01:52:00.872Z,3.10
2023-10-10T01:54:42.269Z,3.06
2023-10-10T01:57:17.413Z,3.14
2023-10-10T01:59:45.378Z,3.21
2023-10-10T02:02:19.926Z,3.17
2023-10-10T02:04:49.139Z,3.10
2023-10-10T02:07:23.100Z,3.05
2023-10-10T02:10:00.675Z,2.97
2023-10-10T02:12:28.504Z,2.93
2023-10-10T02:14:55.969Z,2.99
2023-10-10T02:17:26.278Z,3.04
2023-10-10T02:20:20.927Z,2.98
2023-10-10T02:23:08.339Z,2.89
2023-10-10T02:25:36.316Z,2.82
2023-10-10T02:28:18.997Z,2.77
2023-10-10T02:30:50.699Z,2.85
2023-10-10T02:33:25.065Z,2.83
2023-10-10T02:35:56.390Z,2.76
2023-10-10T02:38:41.049Z,2.69
2023-10-10T02:41:22.436Z,2.62
2023-10-10T02:43:57.294Z,2.63
2023-10-10T02:46:40.308Z,2.66
2023-10-10T02:49:14.455Z,2.57
2023-10-10T02:51:49.632Z,2.48
2023-10-10T02:54:38.308Z,2.37
2023-10-10T02:57:25.487Z,2.33
2023-10-10T02:59:54.968Z,2.36
2023-10-10T03:02:30.071Z,2.28
2023-10-10T03:05:02.266Z,2.20
2023-10-10T03:07:30.906Z,2.13
2023-10-10T03:10:15.548Z,2.09
2023-10-10T03:12:43.274Z,2.14
2023-10-10T03:15:30.146Z,2.10
2023-10-10T03:18:09.675Z,2.01
2023-10-10T03:20:49.447Z,1.93
2023-10-10T03:23:17.098Z,1.92
2023-10-10T03:25:47.906Z,2.00
2023-10-10T03:28:28.134Z,1.98
2023-10-10T03:31:26.216Z,1.90
2023-10-10T03:34:26.492Z,1.82
2023-10-10T03:37:26.327Z,1.83
2023-10-10T03:40:17.145Z,1.94
2023-10-10T03:43:03.502Z,1.90
2023-10-10T03:45:49.829Z,1.82
2023-10-10T03:48:35.925Z,1.73
2023-10-10T03:51:22.168Z,1.74
2023-10-10T03:54:08.414Z,1.82
2023-10-10T03:56:54.464Z,1.75
2023-10-10T03:59:40.930Z,1.66
2023-10-10T04:02:27.318Z,1.60
2023-10-10T04:08:06.411Z,1.69
2023-10-10T04:10:52.680Z,1.62
2023-10-10T04:13:38.740Z,1.56
2023-10-10T04:16:27.825Z,1.58
2023-10-10T04:19:14.310Z,1.69
2023-10-10T04:22:00.620Z,1.67
2023-10-10T04:24:46.612Z,1.62
2023-10-10T04:27:32.709Z,1.58
2023-10-10T04:30:18.961Z,1.68
2023-10-10T04:33:04.990Z,1.74
2023-10-10T04:35:51.299Z,1.70
2023-10-10T04:38:54.132Z,1.67
2023-10-10T04:41:40.165Z,1.66
2023-10-10T04:44:26.510Z,1.79
2023-10-10T04:47:12.712Z,1.82
2023-10-10T04:49:58.922Z,1.81
2023-10-10T04:52:45.294Z,1.80
2023-10-10T04:55:31.487Z,1.92
2023-10-10T04:58:17.718Z,2.01
2023-10-10T05:01:04.077Z,2.03
2023-10-10T05:03:50.189Z,2.09
2023-10-10T05:06:36.584Z,2.18
2023-10-10T05:09:22.876Z,2.39
2023-10-10T05:12:08.962Z,2.62
2023-10-10T05:14:55.146Z,2.73
2023-10-10T05:17:41.315Z,2.82
2023-10-10T05:20:27.764Z,2.89
2023-10-10T05:23:14.003Z,2.96
2023-10-10T05:25:42.753Z,3.09
2023-10-10T05:28:12.150Z,3.28
2023-10-10T05:30:45.391Z,3.37
2023-10-10T05:33:14.128Z,3.42
2023-10-10T05:35:49.115Z,3.45
2023-10-10T05:38:21.237Z,3.48
2023-10-10T05:40:48.813Z,3.53
2023-10-10T05:43:27.399Z,3.58
2023-10-10T05:45:55.687Z,3.72
2023-10-10T05:48:23.448Z,3.90
2023-10-10T05:50:50.920Z,3.95
2023-10-10T05:53:18.629Z,3.97
2023-10-10T05:55:52.357Z,3.97
2023-10-10T05:58:22.465Z,3.98
2023-10-10T06:00:53.819Z,4.02
2023-10-10T06:03:22.784Z,4.09
2023-10-10T06:05:51.625Z,4.17
2023-10-10T06:08:19.176Z,4.24
2023-10-10T06:10:46.699Z,4.32
2023-10-10T06:13:14.112Z,4.55
2023-10-10T06:15:41.651Z,4.67
2023-10-10T06:18:15.506Z,4.67
2023-10-10T06:20:54.788Z,4.66
2023-10-10T06:23:34.859Z,4.61
2023-10-10T06:26:03.708Z,4.55
2023-10-10T06:28:37.261Z,4.56
2023-10-10T06:31:11.869Z,4.58
2023-10-10T06:33:42.817Z,4.64
2023-10-10T06:36:40.105Z,4.70
2023-10-10T06:39:10.476Z,4.78
2023-10-10T06:41:40.570Z,4.87
2023-10-10T06:44:27.062Z,4.99
2023-10-10T06:46:56.973Z,5.15
2023-10-10T06:49:25.071Z,5.28
2023-10-10T06:51:56.817Z,5.42
2023-10-10T06:54:30.624Z,5.56
2023-10-10T06:57:01.262Z,5.71
2023-10-10T06:59:29.500Z,5.82
2023-10-10T07:02:16.980Z,5.90
2023-10-10T07:04:45.001Z,5.94
2023-10-10T07:07:14.951Z,5.97
2023-10-10T07:09:43.900Z,5.93
2023-10-10T07:12:12.230Z,5.85
2023-10-10T07:14:42.455Z,5.82
2023-10-10T07:17:13.607Z,5.81
2023-10-10T07:20:03.843Z,5.83
2023-10-10T07:22:35.739Z,5.84
2023-10-10T07:25:09.026Z,5.84
2023-10-10T07:27:41.147Z,5.83
2023-10-10T07:30:20.588Z,5.85
2023-10-10T07:32:52.320Z,5.89
2023-10-10T07:35:27.326Z,5.95
2023-10-10T07:38:01.165Z,6.05
2023-10-10T07:40:32.700Z,6.16
2023-10-10T07:43:01.586Z,6.27
2023-10-10T07:45:36.002Z,6.41
2023-10-10T07:48:11.162Z,6.57
2023-10-10T07:50:57.976Z,6.74
2023-10-10T07:53:35.110Z,6.90
2023-10-10T07:56:06.504Z,7.03
2023-10-10T07:58:58.548Z,7.17
2023-10-10T08:01:28.900Z,7.26
2023-10-10T08:03:57.381Z,7.39
2023-10-10T08:06:28.976Z,7.52
2023-10-10T08:09:15.938Z,7.65
2023-10-10T08:11:47.701Z,7.84
2023-10-10T08:14:20.177Z,8.02
2023-10-10T08:16:51.684Z,8.27
2023-10-10T08:19:19.644Z,8.53
2023-10-10T08:21:51.144Z,8.75
2023-10-10T08:24:22.254Z,8.89
2023-10-10T08:26:54.268Z,8.97
2023-10-10T08:29:28.857Z,9.04
2023-10-10T08:31:59.563Z,9.23
2023-10-10T08:34:27.157Z,9.35
2023-10-10T08:37:04.489Z,9.42
2023-10-10T08:39:37.982Z,9.54
2023-10-10T08:42:07.069Z,9.64
2023-10-10T08:44:38.104Z,9.73
2023-10-10T08:47:17.513Z,9.87
2023-10-10T08:49:48.806Z,10.11
2023-10-10T08:52:18.591Z,10.51
2023-10-10T08:54:46.046Z,10.95
2023-10-10T08:57:13.833Z,11.34
2023-10-10T08:59:44.059Z,11.70
2023-10-10T09:02:17.887Z,12.16
2023-10-10T09:07:29.342Z,13.43
2023-10-10T09:10:06.272Z,14.11
2023-10-10T09:12:35.537Z,14.61
2023-10-10T09:15:14.865Z,14.81
2023-10-10T09:17:43.203Z,15.16
2023-10-10T09:20:19.478Z,15.46
2023-10-10T09:22:53.144Z,15.82
2023-10-10T09:25:21.402Z,16.16
2023-10-10T09:28:09.410Z,16.52
2023-10-10T09:30:46.354Z,16.99
2023-10-10T09:33:31.292Z,17.30
2023-10-10T09:36:21.300Z,17.60
2023-10-10T09:38:49.667Z,17.65
2023-10-10T09:41:27.713Z,17.59
2023-10-10T09:44:24.356Z,17.62
2023-10-10T09:47:08.909Z,18.03
2023-10-10T09:49:53.506Z,18.56
2023-10-10T09:52:43.621Z,18.89
2023-10-10T09:55:15.937Z,19.09
2023-10-10T09:58:17.348Z,19.67
2023-10-10T10:00:44.891Z,20.27
2023-10-10T10:03:25.959Z,20.58
2023-10-10T10:06:29.046Z,21.11
2023-10-10T10:09:20.853Z,21.99
2023-10-10T10:12:21.415Z,22.47
2023-10-10T10:15:03.739Z,21.69
2023-10-10T10:18:45.955Z,20.62
2023-10-10T10:21:31.924Z,19.48
2023-10-10T10:24:18.073Z,19.28
2023-10-10T10:26:46.241Z,19.64
2023-10-10T10:29:23.911Z,19.80
2023-10-10T10:31:53.348Z,19.39
2023-10-10T10:34:30.113Z,19.02
2023-10-10T10:37:04.595Z,18.73
2023-10-10T10:39:36.492Z,18.35
2023-10-10T10:42:13.651Z,18.03
2023-10-10T10:45:00.179Z,18.08
2023-10-10T10:47:39.405Z,18.04
2023-10-10T10:50:18.898Z,17.75
2023-10-10T10:52:57.859Z,17.31
2023-10-10T10:55:29.298Z,16.80
2023-10-10T10:58:19.576Z,16.31
2023-10-10T11:01:01.962Z,15.76
2023-10-10T11:03:36.911Z,15.21
2023-10-10T11:06:09.215Z,14.69
2023-10-10T11:09:07.110Z,14.30
2023-10-10T11:11:34.616Z,13.95
2023-10-10T11:14:26.590Z,13.70
2023-10-10T11:17:00.199Z,13.42
2023-10-10T11:19:30.026Z,13.24
2023-10-10T11:22:01.764Z,13.17
2023-10-10T11:24:32.934Z,13.31
2023-10-10T11:27:12.861Z,13.74
2023-10-10T11:29:47.263Z,14.34
2023-10-10T11:32:17.071Z,14.68
2023-10-10T11:34:47.958Z,14.71
2023-10-10T11:37:24.414Z,14.65
2023-10-10T11:39:59.370Z,14.52
2023-10-10T11:42:28.010Z,14.38
2023-10-10T11:45:02.919Z,14.19
2023-10-10T11:47:32.190Z,14.03
2023-10-10T11:50:06.765Z,13.92
2023-10-10T11:52:34.358Z,13.80
2023-10-10T11:55:01.857Z,13.63
2023-10-10T11:57:35.374Z,13.45
2023-10-10T12:00:24.299Z,13.35
2023-10-10T12:02:57.111Z,13.33
2023-10-10T12:05:31.272Z,13.33
2023-10-10T12:08:06.516Z,13.26
2023-10-10T12:10:53.493Z,13.13
2023-10-10T12:13:33.509Z,13.01
2023-10-10T12:16:13.116Z,12.92
2023-10-10T12:18:51.535Z,12.91
2023-10-10T12:21:23.301Z,13.00
2023-10-10T12:24:00.315Z,13.09
2023-10-10T12:26:37.447Z,13.11
2023-10-10T12:29:05.496Z,13.07
2023-10-10T12:31:35.680Z,13.13
2023-10-10T12:34:04.197Z,13.24
2023-10-10T12:36:33.881Z,13.33
2023-10-10T12:39:05.908Z,13.30
2023-10-10T12:41:47.680Z,13.17
2023-10-10T12:44:15.413Z,12.93
2023-10-10T12:46:42.927Z,12.69
2023-10-10T12:49:13.253Z,12.49
2023-10-10T12:51:45.904Z,12.30
2023-10-10T12:54:16.765Z,12.23
2023-10-10T12:56:55.949Z,12.20
2023-10-10T12:59:31.961Z,12.14
2023-10-10T13:02:04.391Z,12.10
2023-10-10T13:04:34.773Z,12.06
2023-10-10T13:07:05.535Z,11.95
2023-10-10T13:09:33.848Z,11.89
2023-10-10T13:12:04.977Z,11.85
2023-10-10T13:14:34.820Z,11.84
2023-10-10T13:17:31.114Z,11.81
2023-10-10T13:20:00.310Z,11.77
2023-10-10T13:22:31.017Z,11.76
2023-10-10T13:24:58.730Z,11.77
2023-10-10T13:27:26.779Z,11.74
2023-10-10T13:29:54.412Z,11.74
2023-10-10T13:32:22.133Z,11.74
2023-10-10T13:34:49.556Z,11.77
2023-10-10T13:37:17.079Z,11.79
2023-10-10T13:39:45.411Z,11.78
2023-10-10T13:42:15.843Z,11.78
2023-10-10T13:44:44.257Z,11.69
2023-10-10T13:47:12.054Z,11.59
2023-10-10T13:49:45.900Z,11.52
2023-10-10T13:52:14.514Z,11.41
2023-10-10T13:54:42.088Z,11.28
2023-10-10T13:57:11.263Z,11.14
2023-10-10T13:59:39.134Z,11.02
2023-10-10T14:02:12.082Z,10.90
2023-10-10T14:04:50.343Z,10.76
2023-10-10T14:07:18.658Z,10.62
2023-10-10T14:12:21.948Z,10.43
2023-10-10T14:14:49.835Z,10.36
2023-10-10T14:17:17.440Z,10.30
2023-10-10T14:19:44.914Z,10.24
2023-10-10T14:22:13.417Z,10.13
2023-10-10T14:24:41.363Z,9.99
2023-10-10T14:27:08.929Z,9.87
2023-10-10T14:29:43.391Z,9.76
2023-10-10T14:32:22.776Z,9.65
2023-10-10T14:34:51.877Z,9.54
2023-10-10T14:37:36.269Z,9.46
2023-10-10T14:40:10.899Z,9.36
2023-10-10T14:42:43.378Z,9.29
2023-10-10T14:45:13.998Z,9.22
2023-10-10T14:47:45.328Z,9.15
2023-10-10T14:50:14.643Z,9.08
2023-10-10T14:52:48.786Z,9.01
2023-10-10T14:55:26.123Z,8.94
2023-10-10T14:57:57.106Z,8.86
2023-10-10T15:00:25.665Z,8.78
2023-10-10T15:02:55.154Z,8.72
2023-10-10T15:05:25.303Z,8.64
2023-10-10T15:07:54.356Z,8.55
2023-10-10T15:10:25.107Z,8.46
2023-10-10T15:12:54.571Z,8.39
2023-10-10T15:15:24.687Z,8.33
2023-10-10T15:17:52.994Z,8.27
2023-10-10T15:20:20.690Z,8.22
2023-10-10T15:22:48.184Z,8.18
2023-10-10T15:25:16.661Z,8.15
2023-10-10T15:27:44.400Z,8.11
2023-10-10T15:30:12.104Z,8.04
2023-10-10T15:32:49.027Z,8.00
2023-10-10T15:35:18.556Z,7.93
2023-10-10T15:37:46.203Z,7.86
2023-10-10T15:40:14.641Z,7.79
2023-10-10T15:42:41.998Z,7.74
2023-10-10T15:45:09.593Z,7.67
2023-10-10T15:47:37.018Z,7.61
2023-10-10T15:50:05.987Z,7.57
2023-10-10T15:52:35.056Z,7.54
2023-10-10T15:55:06.939Z,7.49
2023-10-10T15:57:37.100Z,7.45
2023-10-10T16:00:11.886Z,7.40
2023-10-10T16:02:41.335Z,7.35
2023-10-10T16:05:09.369Z,7.30
2023-10-10T16:07:36.721Z,7.24
2023-10-10T16:10:04.394Z,7.21
2023-10-10T16:12:31.731Z,7.17
2023-10-10T16:15:01.543Z,7.13
2023-10-10T16:17:30.074Z,7.10
2023-10-10T16:19:59.673Z,7.07
2023-10-10T16:22:29.097Z,7.05
2023-10-10T16:24:56.596Z,7.02
2023-10-10T16:27:24.097Z,7.01
2023-10-10T16:29:56.822Z,6.99
2023-10-10T16:32:24.521Z,6.97
2023-10-10T16:34:53.539Z,6.93
2023-10-10T16:37:22.459Z,6.89
2023-10-10T16:39:51.530Z,6.85
2023-10-10T16:42:24.960Z,6.81
2023-10-10T16:44:54.904Z,6.77
2023-10-10T16:47:23.214Z,6.74
2023-10-10T16:49:51.467Z,6.69
2023-10-10T16:52:26.782Z,6.66
2023-10-10T16:54:54.542Z,6.62
2023-10-10T16:57:25.748Z,6.59
2023-10-10T16:59:57.650Z,6.55
2023-10-10T17:02:30.174Z,6.52
2023-10-10T17:05:01.980Z,6.48
2023-10-10T17:07:29.810Z,6.44
2023-10-10T17:09:58.173Z,6.40
2023-10-10T17:12:25.715Z,6.34
2023-10-10T17:14:53.214Z,6.27
2023-10-10T17:17:20.624Z,6.19
2023-10-10T17:19:48.226Z,6.10
2023-10-10T17:22:19.859Z,6.03
2023-10-10T17:24:48.489Z,5.99
2023-10-10T17:27:15.929Z,5.96
2023-10-10T17:29:43.466Z,5.94
2023-10-10T17:32:10.969Z,5.91
2023-10-10T17:34:42.163Z,5.88
2023-10-10T17:37:12.686Z,5.84
2023-10-10T17:39:40.257Z,5.78
2023-10-10T17:42:08.092Z,5.74
2023-10-10T17:44:39.542Z,5.69
2023-10-10T17:47:07.537Z,5.65
2023-10-10T17:49:36.279Z,5.59
2023-10-10T17:52:04.182Z,5.54
2023-10-10T17:54:31.803Z,5.51
2023-10-10T17:56:59.177Z,5.48
2023-10-10T17:59:26.674Z,5.45
2023-10-10T18:01:55.039Z,5.42
2023-10-10T18:04:25.092Z,5.40
2023-10-10T18:06:54.187Z,5.38
2023-10-10T18:09:21.740Z,5.36
2023-10-10T18:11:50.309Z,5.34
2023-10-10T18:14:18.834Z,5.31
2023-10-10T18:16:46.748Z,5.29
2023-10-10T18:19:19.516Z,5.27
2023-10-10T18:21:47.406Z,5.25
2023-10-10T18:24:15.113Z,5.23
2023-10-10T18:26:43.528Z,5.22
2023-10-10T18:29:11.077Z,5.20
2023-10-10T18:31:39.733Z,5.18
2023-10-10T18:34:08.182Z,5.16
2023-10-10T18:36:38.738Z,5.13
2023-10-10T18:39:13.930Z,5.11
2023-10-10T18:41:46.060Z,5.10
2023-10-10T18:44:17.052Z,5.10
2023-10-10T18:46:45.177Z,5.09
2023-10-10T18:49:14.518Z,5.07
2023-10-10T18:51:43.804Z,5.05
2023-10-10T18:54:13.680Z,5.03
2023-10-10T18:56:41.585Z,5.00
2023-10-10T18:59:09.325Z,4.97
2023-10-10T19:01:38.931Z,4.94
2023-10-10T19:04:08.777Z,4.91
2023-10-10T19:06:40.447Z,4.89
2023-10-10T19:09:12.852Z,4.88
2023-10-10T19:11:40.768Z,4.86
2023-10-10T19:14:15.427Z,4.85
2023-10-10T19:16:44.630Z,4.83
2023-10-10T19:19:12.079Z,4.83
2023-10-10T19:21:42.941Z,4.83
2023-10-10T19:24:11.307Z,4.81
2023-10-10T19:26:38.887Z,4.79
2023-10-10T19:29:08.638Z,4.76
2023-10-10T19:31:41.123Z,4.73
2023-10-10T19:34:11.493Z,4.82
2023-10-10T19:36:39.743Z,4.93
2023-10-10T19:39:11.716Z,4.95
2023-10-10T19:41:39.875Z,4.91
2023-10-10T19:44:07.531Z,4.88
2023-10-10T19:46:35.059Z,4.86
2023-10-10T19:49:02.525Z,4.83
2023-10-10T19:51:30.200Z,4.81
2023-10-10T19:54:00.412Z,4.77
2023-10-10T19:56:30.423Z,4.74
2023-10-10T19:58:58.373Z,4.72
2023-10-10T20:01:28.742Z,4.69
2023-10-10T20:03:57.043Z,4.66
2023-10-10T20:06:24.980Z,4.64
2023-10-10T20:08:55.478Z,4.61
2023-10-10T20:11:23.773Z,4.58
2023-10-10T20:13:52.930Z,4.64
2023-10-10T20:16:22.854Z,4.73
2023-10-10T20:18:56.213Z,4.72
2023-10-10T20:21:25.584Z,4.71
2023-10-10T20:23:53.115Z,4.70
2023-10-10T20:26:20.887Z,4.68
2023-10-10T20:28:51.646Z,4.67
2023-10-10T20:31:19.844Z,4.64
2023-10-10T20:33:51.589Z,4.61
2023-10-10T20:36:19.333Z,4.59
2023-10-10T20:38:46.716Z,4.58
2023-10-10T20:41:15.072Z,4.56
2023-10-10T20:43:43.491Z,4.55
2023-10-10T20:46:13.157Z,4.51
2023-10-10T20:48:40.882Z,4.47
2023-10-10T20:51:12.819Z,4.55
2023-10-10T20:53:43.574Z,4.67
2023-10-10T20:56:11.979Z,4.68
2023-10-10T20:58:39.704Z,4.63
2023-10-10T21:01:13.883Z,4.60
2023-10-10T21:03:41.951Z,4.59
2023-10-10T21:06:10.006Z,4.59
2023-10-10T21:08:37.479Z,4.59
2023-10-10T21:11:09.870Z,4.57
2023-10-10T21:13:37.706Z,4.53
2023-10-10T21:16:17.489Z,4.50
2023-10-10T21:18:48.417Z,4.49
2023-10-10T21:21:16.098Z,4.46
2023-10-10T21:25:01.284Z,4.44
2023-10-10T21:27:29.055Z,4.50
2023-10-10T21:29:56.467Z,4.61
2023-10-10T21:32:23.861Z,4.62
2023-10-10T21:34:51.455Z,4.60
2023-10-10T21:37:18.819Z,4.61
2023-10-10T21:39:48.804Z,4.62
2023-10-10T21:42:16.243Z,4.63
2023-10-10T21:44:43.746Z,4.62
2023-10-10T21:47:15.770Z,4.60
2023-10-10T21:49:43.774Z,4.56
2023-10-10T21:52:11.306Z,4.50
2023-10-10T21:54:38.868Z,4.46
2023-10-10T21:57:06.248Z,4.44
2023-10-10T21:59:34.450Z,4.41
2023-10-10T22:02:02.713Z,4.36
2023-10-10T22:04:31.295Z,4.34
2023-10-10T22:06:58.733Z,4.42
2023-10-10T22:09:26.630Z,4.53
2023-10-10T22:11:53.982Z,4.52
2023-10-10T22:14:23.020Z,4.53
2023-10-10T22:16:51.997Z,4.54
2023-10-10T22:19:21.135Z,4.54
2023-10-10T22:21:48.547Z,4.50
2023-10-10T22:24:16.018Z,4.48
2023-10-10T22:26:43.493Z,4.43
2023-10-10T22:29:12.474Z,4.37
2023-10-10T22:31:43.321Z,4.31
2023-10-10T22:34:10.846Z,4.24
2023-10-10T22:36:38.321Z,4.16
2023-10-10T22:39:08.633Z,4.19
2023-10-10T22:41:36.027Z,4.27
2023-10-10T22:44:03.540Z,4.26
2023-10-10T22:46:31.496Z,4.22
2023-10-10T22:48:58.862Z,4.18
2023-10-10T22:51:26.157Z,4.16
2023-10-10T22:53:54.377Z,4.15
2023-10-10T22:56:23.235Z,4.15
2023-10-10T22:58:51.081Z,4.12
2023-10-10T23:01:18.601Z,4.07
2023-10-10T23:03:49.005Z,4.02
2023-10-10T23:06:16.676Z,3.99
2023-10-10T23:08:44.215Z,4.06
2023-10-10T23:11:14.346Z,4.17
2023-10-10T23:13:42.114Z,4.19
2023-10-10T23:16:16.213Z,4.16
2023-10-10T23:18:44.303Z,4.16
2023-10-10T23:21:12.774Z,4.17
2023-10-10T23:23:40.176Z,4.16
2023-10-10T23:26:07.595Z,4.11
2023-10-10T23:28:35.876Z,4.05
2023-10-10T23:31:04.385Z,3.98
2023-10-10T23:33:31.979Z,3.91
2023-10-10T23:35:59.555Z,3.97
2023-10-10T23:38:26.973Z,4.05
2023-10-10T23:40:57.891Z,4.04
2023-10-10T23:43:25.288Z,3.97
2023-10-10T23:45:58.106Z,3.92
2023-10-10T23:48:33.097Z,3.92
2023-10-10T23:51:01.200Z,3.89
2023-10-10T23:53:28.759Z,3.85
2023-10-10T23:56:00.226Z,3.82
2023-10-10T23:58:30.734Z,3.78
